createdAt,value
2019-01-03T00:04:42.965Z,5.79
2019-01-03T00:09:50.693Z,6.32
2019-01-03T00:14:58.459Z,5.65
2019-01-03T00:20:06.121Z,5.59
2019-01-03T00:25:13.979Z,5.36
2019-01-03T00:30:21.705Z,5.58
2019-01-03T00:35:29.430Z,5.48
2019-01-03T00:40:37.131Z,5.62
2019-01-03T00:45:44.882Z,5.92
2019-01-03T00:50:52.679Z,5.50
2019-01-03T00:56:00.471Z,5.42
2019-01-03T01:01:08.157Z,5.63
2019-01-03T01:06:15.884Z,5.35
2019-01-03T01:11:23.727Z,5.41
2019-01-03T01:16:31.554Z,5.51
2019-01-03T01:21:39.263Z,6.27
2019-01-03T01:26:46.979Z,6.15
2019-01-03T01:31:54.677Z,6.15
2019-01-03T01:37:02.508Z,5.32
2019-01-03T01:42:10.142Z,5.18
2019-01-03T01:47:17.904Z,5.30
2019-01-03T01:52:25.582Z,5.34
2019-01-03T01:57:33.357Z,5.11
2019-01-03T02:02:41.063Z,5.09
2019-01-03T02:07:48.822Z,5.50
2019-01-03T02:12:56.513Z,5.31
2019-01-03T02:18:04.396Z,5.18
2019-01-03T02:23:12.095Z,5.65
2019-01-03T02:28:19.813Z,5.74
2019-01-03T02:33:27.493Z,6.02
2019-01-03T02:38:35.459Z,5.36
2019-01-03T02:43:43.161Z,5.73
2019-01-03T02:48:50.873Z,6.06
2019-01-03T02:53:58.535Z,5.87
2019-01-03T02:59:06.269Z,5.74
2019-01-03T03:04:13.954Z,5.20
2019-01-03T03:09:21.750Z,5.37
2019-01-03T03:14:29.439Z,5.05
2019-01-03T03:19:37.346Z,5.80
2019-01-03T03:24:44.994Z,5.96
2019-01-03T03:29:52.755Z,5.00
2019-01-03T03:35:00.410Z,5.24
2019-01-03T03:40:08.178Z,4.89
2019-01-03T03:45:15.894Z,5.20
2019-01-03T03:50:23.642Z,4.91
2019-01-03T03:55:31.360Z,5.39
2019-01-03T04:00:39.108Z,5.08
2019-01-03T04:05:46.801Z,5.65
2019-01-03T04:10:54.569Z,5.16
2019-01-03T04:16:02.267Z,4.69
2019-01-03T04:21:10.136Z,5.03
2019-01-03T04:26:17.827Z,5.11
2019-01-03T04:31:25.759Z,5.62
2019-01-03T04:36:33.453Z,4.74
2019-01-03T04:41:41.193Z,5.62
2019-01-03T04:46:48.915Z,5.65
2019-01-03T04:51:56.685Z,4.91
2019-01-03T04:57:04.457Z,4.76
2019-01-03T05:02:12.373Z,4.88
2019-01-03T05:07:20.079Z,5.11
2019-01-03T05:12:27.900Z,4.41
2019-01-03T05:17:35.580Z,4.88
2019-01-03T05:22:43.334Z,4.35
2019-01-03T05:27:50.986Z,4.21
2019-01-03T05:32:58.711Z,4.04
2019-01-03T05:38:06.370Z,4.45
2019-01-03T05:43:14.144Z,3.85
2019-01-03T05:48:21.870Z,3.72
2019-01-03T05:53:29.667Z,3.81
2019-01-03T05:58:37.361Z,3.74
2019-01-03T06:03:45.197Z,4.58
2019-01-03T06:08:52.839Z,6.30
2019-01-03T06:14:00.588Z,3.85
2019-01-03T06:19:08.341Z,3.95
2019-01-03T06:24:16.087Z,4.02
2019-01-03T06:29:23.727Z,3.96
2019-01-03T06:34:31.494Z,4.42
2019-01-03T06:39:39.184Z,4.11
2019-01-03T06:44:46.882Z,4.11
2019-01-03T06:49:54.642Z,6.81
2019-01-03T06:55:02.417Z,4.60
2019-01-03T07:00:10.212Z,4.61
2019-01-03T07:05:18.021Z,4.38
2019-01-03T07:10:25.734Z,4.72
2019-01-03T07:15:33.537Z,4.38
2019-01-03T07:20:41.220Z,4.33
2019-01-03T07:25:48.940Z,4.53
2019-01-03T07:30:56.615Z,3.90
2019-01-03T07:36:04.379Z,4.33
2019-01-03T07:41:12.087Z,4.30
2019-01-03T07:46:19.836Z,3.99
2019-01-03T07:51:27.592Z,4.61
2019-01-03T07:56:35.333Z,4.59
2019-01-03T08:01:43.165Z,4.47
2019-01-03T08:06:50.967Z,5.11
2019-01-03T08:11:58.776Z,4.57
2019-01-03T08:17:06.565Z,4.63
2019-01-03T08:22:14.279Z,3.89
2019-01-03T08:27:22.014Z,4.05
2019-01-03T08:32:29.747Z,3.91
2019-01-03T08:37:37.512Z,3.64
2019-01-03T08:42:45.256Z,3.68
2019-01-03T08:47:53.042Z,4.08
2019-01-03T08:53:00.729Z,3.77
2019-01-03T08:58:08.471Z,3.45
2019-01-03T09:03:16.168Z,3.57
2019-01-03T09:08:23.900Z,4.07
2019-01-03T09:13:31.582Z,3.60
2019-01-03T09:18:39.462Z,3.57
2019-01-03T09:23:47.145Z,3.87
2019-01-03T09:28:54.914Z,3.91
2019-01-03T09:34:02.588Z,3.44
2019-01-03T09:39:10.424Z,3.37
2019-01-03T09:44:18.116Z,3.92
2019-01-03T09:49:25.879Z,3.54
2019-01-03T09:54:33.547Z,3.59
2019-01-03T09:59:41.308Z,3.28
2019-01-03T10:04:49.036Z,3.50
2019-01-03T10:09:56.786Z,3.15
2019-01-03T10:15:04.470Z,3.35
2019-01-03T10:20:12.226Z,2.96
2019-01-03T10:25:19.868Z,2.95
2019-01-03T10:30:27.735Z,3.00
2019-01-03T10:35:35.402Z,2.78
2019-01-03T10:40:43.145Z,2.64
2019-01-03T10:45:50.788Z,2.56
2019-01-03T10:50:58.525Z,2.91
2019-01-03T10:56:06.224Z,2.90
2019-01-03T11:01:14.007Z,2.76
2019-01-03T11:06:21.712Z,2.69
2019-01-03T11:11:29.517Z,2.47
2019-01-03T11:16:37.160Z,2.58
2019-01-03T11:21:44.947Z,2.84
2019-01-03T11:26:52.602Z,2.68
2019-01-03T11:32:00.278Z,3.09
2019-01-03T11:37:08.101Z,2.72
2019-01-03T11:42:15.830Z,3.02
2019-01-03T11:47:23.553Z,2.98
2019-01-03T11:52:31.342Z,2.71
2019-01-03T11:57:39.054Z,2.72
2019-01-03T12:02:46.910Z,2.66
2019-01-03T12:07:54.550Z,2.80
2019-01-03T12:13:02.294Z,3.00
2019-01-03T12:18:09.944Z,2.95
2019-01-03T12:23:17.753Z,2.76
2019-01-03T12:28:25.430Z,2.68
2019-01-03T12:33:33.252Z,2.63
2019-01-03T12:38:40.899Z,2.70
2019-01-03T12:43:48.650Z,2.48
2019-01-03T12:48:56.366Z,2.84
2019-01-03T12:54:04.133Z,2.99
2019-01-03T12:59:11.886Z,2.71
2019-01-03T13:04:19.604Z,2.90
2019-01-03T13:09:27.286Z,3.08
2019-01-03T13:14:35.092Z,3.02
2019-01-03T13:19:42.766Z,3.09
2019-01-03T13:24:50.537Z,2.74
2019-01-03T13:29:58.248Z,2.76
2019-01-03T13:35:05.934Z,2.77
2019-01-03T13:40:13.693Z,2.80
2019-01-03T13:45:21.405Z,2.80
2019-01-03T13:50:29.110Z,2.79
2019-01-03T13:55:36.930Z,2.55
2019-01-03T14:00:44.610Z,2.82
2019-01-03T14:05:52.408Z,2.79
2019-01-03T14:11:00.124Z,2.72
2019-01-03T14:16:07.888Z,2.70
2019-01-03T14:21:15.630Z,2.63
2019-01-03T14:26:23.430Z,2.83
2019-01-03T14:31:31.114Z,2.41
2019-01-03T14:36:38.881Z,2.47
2019-01-03T14:41:46.580Z,2.65
2019-01-03T14:46:54.390Z,2.34
2019-01-03T14:52:02.118Z,2.35
2019-01-03T14:57:09.940Z,2.27
2019-01-03T15:02:17.622Z,2.31
2019-01-03T15:07:25.332Z,2.26
2019-01-03T15:12:33.070Z,2.35
2019-01-03T15:17:40.822Z,2.72
2019-01-03T15:22:48.503Z,2.58
2019-01-03T15:27:56.298Z,2.83
2019-01-03T15:33:03.997Z,2.65
2019-01-03T15:38:11.778Z,2.80
2019-01-03T15:43:19.434Z,2.87
2019-01-03T15:48:27.337Z,2.89
2019-01-03T15:53:36.407Z,2.75
2019-01-03T15:58:44.178Z,2.94
2019-01-03T16:03:51.804Z,2.68
2019-01-03T16:08:59.665Z,2.82
2019-01-03T16:14:07.292Z,2.92
2019-01-03T16:19:15.070Z,3.17
2019-01-03T16:24:22.723Z,2.89
2019-01-03T16:29:30.495Z,2.62
2019-01-03T16:34:38.212Z,2.77
2019-01-03T16:39:46.010Z,2.64
2019-01-03T16:44:53.703Z,2.75
2019-01-03T16:50:01.483Z,2.84
2019-01-03T16:55:09.376Z,2.77
2019-01-03T17:00:17.122Z,3.08
2019-01-03T17:05:24.822Z,2.91
2019-01-03T17:10:32.595Z,3.01
2019-01-03T17:15:40.256Z,3.30
2019-01-03T17:20:48.004Z,2.84
2019-01-03T17:25:55.643Z,3.22
2019-01-03T17:31:03.395Z,3.38
2019-01-03T17:36:11.137Z,3.29
2019-01-03T17:41:18.889Z,3.28
2019-01-03T17:46:26.594Z,3.36
2019-01-03T17:51:34.363Z,3.91
2019-01-03T17:56:42.039Z,3.78
2019-01-03T18:01:49.808Z,3.46
2019-01-03T18:06:57.474Z,3.64
2019-01-03T18:12:05.357Z,3.49
2019-01-03T18:17:13.021Z,3.76
2019-01-03T18:22:20.744Z,3.46
2019-01-03T18:27:28.387Z,3.32
2019-01-03T18:32:36.193Z,3.24
2019-01-03T18:37:43.905Z,3.34
2019-01-03T18:42:51.734Z,3.11
2019-01-03T18:47:59.420Z,3.18
2019-01-03T18:53:07.616Z,2.83
2019-01-03T18:58:15.275Z,3.20
2019-01-03T19:03:22.997Z,3.13
2019-01-03T19:08:30.726Z,3.43
2019-01-03T19:13:38.462Z,3.31
2019-01-03T19:18:46.526Z,3.32
2019-01-03T19:23:56.502Z,3.49
2019-01-03T19:29:07.192Z,3.31
2019-01-03T19:34:04.963Z,3.40
2019-01-03T19:39:12.615Z,3.49
2019-01-03T19:44:20.817Z,3.62
2019-01-03T19:49:28.512Z,3.53
2019-01-03T19:54:36.295Z,4.06
2019-01-03T19:59:44.013Z,4.06
2019-01-03T20:04:51.834Z,4.27
2019-01-03T20:09:59.491Z,3.75
2019-01-03T20:15:07.195Z,4.12
2019-01-03T20:20:14.905Z,3.74
2019-01-03T20:25:22.700Z,4.11
2019-01-03T20:30:30.431Z,4.10
2019-01-03T20:35:38.178Z,4.32
2019-01-03T20:40:46.918Z,4.35
2019-01-03T20:45:54.694Z,4.07
2019-01-03T20:51:02.432Z,4.18
2019-01-03T20:56:10.178Z,4.50
2019-01-03T21:01:17.814Z,4.63
2019-01-03T21:06:25.558Z,4.78
2019-01-03T21:11:33.233Z,4.70
2019-01-03T21:16:40.976Z,4.39
2019-01-03T21:21:48.641Z,4.63
2019-01-03T21:26:56.736Z,4.64
2019-01-03T21:32:04.377Z,5.13
2019-01-03T21:37:12.146Z,4.43
2019-01-03T21:42:19.832Z,4.38
2019-01-03T21:47:27.638Z,4.58
2019-01-03T21:52:35.325Z,4.64
2019-01-03T21:57:43.034Z,4.65
2019-01-03T22:02:50.637Z,4.77
2019-01-03T22:07:58.346Z,4.65
2019-01-03T22:13:06.064Z,4.93
2019-01-03T22:18:16.668Z,5.15
2019-01-03T22:23:14.378Z,4.97
2019-01-03T22:28:22.138Z,5.29
2019-01-03T22:33:29.826Z,5.38
2019-01-03T22:38:37.576Z,5.22
2019-01-03T22:43:45.198Z,5.91
2019-01-03T22:48:53.030Z,5.74
2019-01-03T22:54:00.602Z,6.28
2019-01-03T22:59:08.394Z,5.95
2019-01-03T23:04:16.140Z,6.58
2019-01-03T23:09:24.221Z,6.66
2019-01-03T23:14:31.934Z,6.73
2019-01-03T23:19:39.704Z,8.71
2019-01-03T23:24:47.493Z,7.39
2019-01-03T23:29:55.423Z,7.81
2019-01-03T23:35:03.135Z,7.77
2019-01-03T23:40:10.863Z,7.73
2019-01-03T23:45:18.630Z,11.14
2019-01-03T23:50:26.499Z,8.89
2019-01-03T23:55:34.187Z,9.00
